Time;durP1;ratioP1;P1;durP2;ratioP2;P2;SDS_P1;SDS_P2;PMS_P1;PMS_P2;Temp;Humidity;BMP_temperature;BMP_pressure;BME280_temperature;BME280_humidity;BME280_pressure;Samples;Min_cycle;Max_cycle;Signal;HPM_P1;HPM_P2
2021/03/10 00:00:16;;;;;;;5.77;5.27;;;7.60;90.00;;;;;;5073545;28;20836;-72
2021/03/10 00:02:42;;;;;;;8.33;6.73;;;7.60;90.00;;;;;;5073730;28;20589;-72
2021/03/10 00:05:10;;;;;;;6.40;5.67;;;7.70;90.00;;;;;;5072702;28;20463;-72
2021/03/10 00:07:36;;;;;;;6.50;5.90;;;7.70;90.00;;;;;;5073739;28;20819;-72
2021/03/10 00:10:04;;;;;;;6.20;5.60;;;7.60;90.00;;;;;;5073473;28;20468;-72
2021/03/10 00:12:30;;;;;;;5.60;5.10;;;7.70;90.00;;;;;;5073416;28;20824;-72
2021/03/10 00:14:57;;;;;;;7.10;5.77;;;7.70;89.80;;;;;;5073669;28;20451;-72
2021/03/10 00:17:23;;;;;;;6.37;5.73;;;7.70;89.60;;;;;;5073590;28;20476;-72
2021/03/10 00:19:49;;;;;;;6.00;5.43;;;7.60;89.70;;;;;;5073589;28;20965;-72
2021/03/10 00:22:16;;;;;;;6.37;5.77;;;7.60;89.70;;;;;;5073636;28;20440;-72
2021/03/10 00:24:42;;;;;;;5.73;5.23;;;7.60;89.60;;;;;;5073812;28;20452;-72
2021/03/10 00:27:08;;;;;;;6.30;5.70;;;7.60;89.50;;;;;;5073500;28;20472;-72
2021/03/10 00:29:35;;;;;;;6.20;5.60;;;7.70;89.60;;;;;;5073458;28;20494;-72
2021/03/10 00:32:02;;;;;;;6.37;5.80;;;7.60;89.50;;;;;;5073185;28;20939;-72
2021/03/10 00:34:28;;;;;;;6.30;5.70;;;7.60;89.40;;;;;;5073476;28;20447;-72
2021/03/10 00:36:54;;;;;;;6.00;5.40;;;7.60;89.40;;;;;;5074187;28;20455;-72
2021/03/10 00:39:20;;;;;;;6.30;5.70;;;7.60;89.30;;;;;;5073392;28;20448;-72
2021/03/10 00:41:47;;;;;;;5.87;5.37;;;7.60;89.30;;;;;;5073424;28;20441;-72
2021/03/10 00:44:13;;;;;;;6.53;5.93;;;7.60;89.20;;;;;;5073384;28;20444;-72
2021/03/10 00:46:39;;;;;;;6.17;5.43;;;7.60;89.10;;;;;;5073117;28;20943;-72
2021/03/10 00:49:06;;;;;;;5.70;5.20;;;7.60;89.10;;;;;;5073255;28;20461;-72
2021/03/10 00:51:32;;;;;;;5.40;4.90;;;7.50;88.80;;;;;;5073239;28;20574;-72
2021/03/10 00:53:58;;;;;;;6.40;5.80;;;7.50;88.70;;;;;;5073283;28;20441;-72
2021/03/10 00:56:25;;;;;;;7.00;5.70;;;7.40;88.50;;;;;;5073246;28;20449;-72
2021/03/10 00:58:51;;;;;;;6.40;5.80;;;7.40;88.50;;;;;;5073191;28;20465;-72
2021/03/10 01:01:17;;;;;;;6.23;5.63;;;7.30;88.50;;;;;;5073199;28;20445;-72
2021/03/10 01:03:43;;;;;;;6.63;5.93;;;7.30;88.60;;;;;;5073474;28;20440;-72
2021/03/10 01:06:11;;;;;;;6.17;5.57;;;7.30;88.70;;;;;;5073048;28;20456;-72
2021/03/10 01:08:37;;;;;;;7.60;6.80;;;7.20;88.40;;;;;;5072744;28;20461;-72
2021/03/10 01:11:04;;;;;;;6.90;6.30;;;7.20;88.60;;;;;;5072663;28;20476;-72
2021/03/10 01:13:30;;;;;;;6.20;5.60;;;7.10;88.70;;;;;;5072731;28;20957;-72
2021/03/10 01:15:56;;;;;;;6.30;5.80;;;7.10;88.90;;;;;;5073361;28;20470;-72
2021/03/10 01:18:22;;;;;;;6.80;5.90;;;7.00;88.70;;;;;;5076782;28;20460;-72
2021/03/10 01:20:49;;;;;;;8.40;7.60;;;6.90;88.70;;;;;;5076850;28;20444;-72
2021/03/10 01:23:16;;;;;;;6.80;6.23;;;6.90;89.00;;;;;;5076809;28;20440;-72
2021/03/10 01:25:42;;;;;;;7.10;6.50;;;6.80;89.50;;;;;;5076797;28;20453;-72
2021/03/10 01:28:08;;;;;;;7.67;6.67;;;6.80;89.90;;;;;;5076644;28;20486;-72
2021/03/10 01:30:34;;;;;;;7.03;6.33;;;6.80;90.10;;;;;;5076593;28;20480;-72
2021/03/10 01:33:01;;;;;;;6.87;6.17;;;6.80;90.20;;;;;;5077211;28;20449;-72
2021/03/10 01:35:27;;;;;;;8.03;6.80;;;6.80;90.30;;;;;;5076609;28;20777;-72
2021/03/10 01:37:53;;;;;;;8.90;7.97;;;6.80;90.40;;;;;;5076443;28;20456;-72
2021/03/10 01:40:21;;;;;;;9.87;6.60;;;6.80;90.50;;;;;;5076519;28;20443;-72
2021/03/10 01:42:47;;;;;;;8.33;7.43;;;6.80;90.50;;;;;;5076452;28;20444;-72
2021/03/10 01:45:14;;;;;;;7.27;6.67;;;6.80;90.40;;;;;;5076395;28;20479;-72
2021/03/10 01:47:42;;;;;;;7.23;6.50;;;6.80;90.50;;;;;;5076218;28;20464;-72
2021/03/10 01:50:09;;;;;;;8.27;7.50;;;6.80;90.50;;;;;;5075840;28;20848;-72
2021/03/10 01:52:36;;;;;;;10.40;7.33;;;6.80;90.60;;;;;;5076218;28;20455;-72
2021/03/10 01:55:03;;;;;;;11.87;7.10;;;6.90;90.70;;;;;;5075859;28;20448;-72
2021/03/10 01:57:30;;;;;;;7.73;7.03;;;6.90;90.70;;;;;;5075781;28;20982;-72
2021/03/10 01:59:57;;;;;;;7.83;7.13;;;6.80;90.60;;;;;;5076113;28;20441;-72
2021/03/10 02:02:23;;;;;;;7.60;6.80;;;6.80;90.60;;;;;;5075687;28;20821;-72
2021/03/10 02:04:49;;;;;;;9.13;8.30;;;6.90;90.70;;;;;;5075596;28;20437;-72
2021/03/10 02:07:26;;;;;;;9.37;8.10;;;6.80;90.70;;;;;;5075882;28;20471;-72
2021/03/10 02:10:02;;;;;;;10.17;8.27;;;6.80;90.90;;;;;;5075905;28;20490;-72
2021/03/10 02:12:40;;;;;;;9.97;8.83;;;6.80;90.90;;;;;;5075658;28;20906;-72
2021/03/10 02:15:12;;;;;;;10.57;9.30;;;6.80;90.90;;;;;;5075853;28;20429;-72
2021/03/10 02:17:42;;;;;;;14.60;8.97;;;6.70;91.00;;;;;;5075697;28;20481;-72
2021/03/10 02:20:31;;;;;;;12.17;9.47;;;6.80;91.20;;;;;;5075970;28;20436;-72
2021/03/10 02:23:28;;;;;;;11.17;9.97;;;6.70;91.30;;;;;;5075645;28;20433;-72
2021/03/10 02:26:08;;;;;;;11.63;10.47;;;6.70;91.60;;;;;;5075689;28;20429;-72
2021/03/10 02:28:37;;;;;;;14.50;10.23;;;6.60;91.80;;;;;;5074431;28;20464;-72
2021/03/10 02:31:06;;;;;;;12.60;11.30;;;6.50;92.00;;;;;;5075710;28;20477;-72
2021/03/10 02:33:37;;;;;;;13.40;10.97;;;6.40;92.10;;;;;;5075181;28;20935;-72
2021/03/10 02:36:06;;;;;;;15.97;11.40;;;6.40;92.30;;;;;;5075490;28;20794;-72
2021/03/10 02:38:33;;;;;;;14.67;12.43;;;6.50;92.30;;;;;;5075342;28;20469;-72
2021/03/10 02:41:00;;;;;;;12.40;11.10;;;6.50;92.40;;;;;;5075404;28;20468;-72
2021/03/10 02:43:27;;;;;;;13.70;11.83;;;6.50;92.50;;;;;;5075352;28;20846;-72
2021/03/10 02:45:55;;;;;;;13.27;11.87;;;6.50;92.40;;;;;;5075934;28;20429;-72
2021/03/10 02:48:23;;;;;;;12.47;11.13;;;6.50;92.40;;;;;;5074892;28;20461;-72
2021/03/10 02:50:50;;;;;;;11.30;10.20;;;6.50;92.50;;;;;;5075171;28;20476;-72
2021/03/10 02:53:17;;;;;;;13.80;11.37;;;6.60;92.50;;;;;;5075105;28;20448;-72
2021/03/10 02:55:45;;;;;;;12.53;10.73;;;6.60;92.30;;;;;;5075117;28;20510;-72
2021/03/10 02:58:11;;;;;;;12.00;10.80;;;6.60;92.20;;;;;;5074720;28;20464;-73
2021/03/10 03:00:38;;;;;;;12.50;10.83;;;6.70;92.10;;;;;;5075018;28;20440;-72
2021/03/10 03:03:05;;;;;;;14.73;13.07;;;6.70;91.90;;;;;;5074681;28;20931;-72
2021/03/10 03:05:32;;;;;;;16.33;12.90;;;6.70;91.80;;;;;;5074995;28;20448;-72
2021/03/10 03:08:00;;;;;;;14.07;12.63;;;6.70;91.80;;;;;;5075125;28;20457;-72
2021/03/10 03:10:29;;;;;;;13.87;12.47;;;6.70;91.70;;;;;;5074858;28;20530;-72
2021/03/10 03:12:56;;;;;;;14.27;12.77;;;6.80;91.70;;;;;;5074944;28;20437;-72
2021/03/10 03:15:24;;;;;;;18.40;14.40;;;6.80;91.70;;;;;;5074824;28;20444;-72
2021/03/10 03:17:51;;;;;;;15.73;14.03;;;6.70;91.60;;;;;;5074778;28;20473;-72
2021/03/10 03:20:20;;;;;;;14.80;13.20;;;6.70;91.70;;;;;;5074814;28;20448;-72
2021/03/10 03:22:50;;;;;;;17.30;12.33;;;6.70;91.70;;;;;;5074637;28;20444;-72
2021/03/10 03:25:18;;;;;;;16.80;12.57;;;6.70;91.70;;;;;;5074518;28;20440;-72
2021/03/10 03:27:48;;;;;;;16.10;12.57;;;6.70;91.70;;;;;;5074405;28;20517;-72
2021/03/10 03:30:16;;;;;;;18.50;12.97;;;6.70;91.60;;;;;;5074394;28;20469;-72
2021/03/10 03:32:44;;;;;;;15.97;13.90;;;6.60;91.60;;;;;;5074436;28;20445;-72
2021/03/10 03:35:11;;;;;;;17.73;13.40;;;6.60;91.60;;;;;;5074336;28;20445;-72
2021/03/10 03:37:39;;;;;;;17.97;14.40;;;6.60;91.70;;;;;;5074202;28;20551;-72
2021/03/10 03:40:07;;;;;;;17.40;13.83;;;6.60;91.70;;;;;;5074024;28;20930;-72
2021/03/10 03:42:33;;;;;;;16.70;13.23;;;6.60;91.70;;;;;;5073919;28;20456;-72
2021/03/10 03:45:00;;;;;;;16.87;13.23;;;6.60;91.60;;;;;;5074174;28;20498;-72
2021/03/10 03:47:27;;;;;;;16.13;12.63;;;6.60;91.60;;;;;;5073734;28;20505;-72
2021/03/10 03:49:53;;;;;;;20.30;13.27;;;6.60;91.40;;;;;;5073966;28;20440;-72
2021/03/10 03:52:19;;;;;;;22.00;17.80;;;6.60;91.30;;;;;;5074037;28;20445;-72
2021/03/10 03:54:46;;;;;;;20.53;16.53;;;6.60;91.10;;;;;;5073684;28;20930;-72
2021/03/10 03:57:12;;;;;;;18.93;13.70;;;6.60;91.00;;;;;;5073879;28;20460;-72
2021/03/10 03:59:38;;;;;;;12.80;11.43;;;6.50;90.90;;;;;;5074186;28;20440;-72
2021/03/10 04:02:05;;;;;;;18.70;12.10;;;6.50;90.70;;;;;;5073907;28;20447;-72
2021/03/10 04:04:31;;;;;;;15.83;12.67;;;6.60;90.70;;;;;;5073867;28;20807;-72
2021/03/10 04:06:57;;;;;;;13.80;11.73;;;6.50;90.70;;;;;;5073595;28;20456;-72
2021/03/10 04:09:23;;;;;;;20.50;14.60;;;6.60;90.70;;;;;;5073782;28;20445;-72
2021/03/10 04:11:51;;;;;;;23.50;15.13;;;6.60;90.70;;;;;;5073384;28;20484;-72
2021/03/10 04:14:18;;;;;;;27.57;17.53;;;6.60;90.90;;;;;;5073707;28;20467;-72
2021/03/10 04:16:44;;;;;;;20.87;14.70;;;6.60;91.30;;;;;;5073672;28;20433;-72
2021/03/10 04:19:11;;;;;;;19.70;16.53;;;6.60;91.30;;;;;;5073590;28;20472;-72
2021/03/10 04:21:38;;;;;;;24.80;17.80;;;6.50;91.40;;;;;;5073316;28;20494;-72
2021/03/10 04:24:06;;;;;;;22.97;15.63;;;6.60;91.60;;;;;;5073595;28;20787;-72
2021/03/10 04:26:32;;;;;;;27.70;18.60;;;6.50;91.60;;;;;;5073600;28;20514;-72
2021/03/10 04:28:59;;;;;;;29.77;18.37;;;6.60;91.90;;;;;;5073746;28;20453;-72
2021/03/10 04:31:25;;;;;;;30.63;18.80;;;6.60;92.40;;;;;;5073713;28;20476;-72
2021/03/10 04:33:52;;;;;;;30.77;18.50;;;6.60;92.20;;;;;;5073469;28;20497;-72
2021/03/10 04:36:18;;;;;;;28.40;19.17;;;6.50;92.30;;;;;;5073171;28;20939;-72
2021/03/10 04:38:44;;;;;;;35.73;18.00;;;6.50;92.40;;;;;;5073368;28;20460;-72
2021/03/10 04:41:10;;;;;;;29.63;18.90;;;6.50;92.40;;;;;;5073390;28;20440;-72
2021/03/10 04:43:36;;;;;;;31.00;19.40;;;6.50;92.80;;;;;;5073079;28;20927;-72
2021/03/10 04:46:04;;;;;;;29.63;20.13;;;6.60;92.60;;;;;;5073072;28;20514;-72
2021/03/10 04:48:30;;;;;;;37.70;21.60;;;6.50;92.70;;;;;;5073246;28;20826;-72
2021/03/10 04:50:56;;;;;;;32.43;20.83;;;6.50;92.70;;;;;;5073915;28;20479;-72
2021/03/10 04:53:22;;;;;;;36.10;20.60;;;6.50;92.80;;;;;;5077460;28;20455;-72
2021/03/10 04:55:48;;;;;;;37.17;19.90;;;6.50;92.90;;;;;;5077134;28;20958;-72
2021/03/10 04:58:14;;;;;;;34.13;21.53;;;6.50;92.90;;;;;;5077284;28;20464;-72
2021/03/10 05:00:41;;;;;;;29.33;20.23;;;6.60;92.80;;;;;;5077284;28;20441;-72
2021/03/10 05:03:08;;;;;;;34.87;20.37;;;6.60;92.80;;;;;;5077241;28;20463;-72
2021/03/10 05:05:34;;;;;;;35.63;19.70;;;6.70;92.70;;;;;;5076994;28;20468;-72
2021/03/10 05:08:00;;;;;;;34.93;20.93;;;6.70;92.70;;;;;;5077080;28;20464;-72
2021/03/10 05:10:26;;;;;;;34.40;21.67;;;6.80;92.70;;;;;;5076779;28;20476;-72
2021/03/10 05:12:52;;;;;;;31.93;22.23;;;6.80;92.60;;;;;;5077091;28;20425;-72
2021/03/10 05:15:19;;;;;;;32.07;19.67;;;6.80;92.90;;;;;;5077006;28;20449;-72
2021/03/10 05:17:45;;;;;;;28.23;20.53;;;6.80;92.60;;;;;;5076942;28;20469;-72
2021/03/10 05:20:13;;;;;;;30.60;21.00;;;6.80;92.70;;;;;;5077451;28;20445;-72
2021/03/10 05:22:39;;;;;;;45.47;22.13;;;6.80;92.70;;;;;;5076538;28;20852;-72
2021/03/10 05:25:08;;;;;;;33.27;21.30;;;6.80;92.60;;;;;;5076463;28;20942;-72
2021/03/10 05:27:34;;;;;;;33.47;23.67;;;6.80;92.60;;;;;;5076674;28;20464;-72
2021/03/10 05:30:00;;;;;;;31.30;23.60;;;6.80;92.70;;;;;;5077215;28;20449;-72
2021/03/10 05:32:26;;;;;;;30.67;19.87;;;6.80;92.70;;;;;;5076381;28;20954;-72
2021/03/10 05:34:53;;;;;;;26.70;21.30;;;6.80;92.80;;;;;;5076600;28;20456;-72
2021/03/10 05:37:20;;;;;;;25.70;20.00;;;6.80;92.70;;;;;;5076576;28;20593;-72
2021/03/10 05:39:47;;;;;;;25.37;19.80;;;6.80;92.70;;;;;;5076605;28;20467;-72
2021/03/10 05:42:13;;;;;;;26.37;21.83;;;6.80;92.70;;;;;;5076244;28;20960;-72
2021/03/10 05:44:39;;;;;;;29.77;20.93;;;6.80;92.80;;;;;;5076539;28;20428;-72
2021/03/10 05:47:06;;;;;;;29.50;22.13;;;6.70;92.80;;;;;;5076372;28;20514;-71
2021/03/10 05:49:32;;;;;;;26.47;20.60;;;6.70;92.80;;;;;;5076151;28;20440;-72
2021/03/10 05:52:00;;;;;;;29.83;22.47;;;6.80;92.90;;;;;;5075949;28;20994;-72
2021/03/10 05:54:29;;;;;;;23.57;18.40;;;6.70;92.90;;;;;;5076400;28;20424;-72
2021/03/10 05:56:56;;;;;;;26.27;19.60;;;6.70;92.80;;;;;;5076218;28;20514;-73
2021/03/10 05:59:22;;;;;;;28.27;23.77;;;6.70;92.80;;;;;;5076176;28;20483;-72
2021/03/10 06:01:48;;;;;;;22.80;19.17;;;6.80;92.70;;;;;;5075729;28;20441;-72
2021/03/10 06:04:15;;;;;;;28.97;22.00;;;6.80;92.80;;;;;;5076117;28;20437;-72
2021/03/10 06:06:42;;;;;;;28.97;22.73;;;6.80;92.80;;;;;;5075721;28;20463;-72
2021/03/10 06:09:13;;;;;;;26.63;20.23;;;6.80;93.10;;;;;;5076126;28;20464;-72
2021/03/10 06:11:52;;;;;;;29.40;22.30;;;6.70;92.80;;;;;;5076133;28;20457;-72
2021/03/10 06:14:19;;;;;;;29.63;22.40;;;6.70;92.80;;;;;;5076206;28;20435;-72
2021/03/10 06:16:45;;;;;;;26.97;21.80;;;6.70;92.90;;;;;;5075667;28;20899;-72
2021/03/10 06:19:11;;;;;;;28.80;22.10;;;6.70;92.90;;;;;;5075835;28;20464;-72
2021/03/10 06:21:48;;;;;;;30.83;23.97;;;6.70;93.40;;;;;;5075750;28;20798;-72
2021/03/10 06:24:15;;;;;;;30.83;23.57;;;6.70;93.10;;;;;;5075457;28;20428;-73
2021/03/10 06:26:52;;;;;;;34.00;24.47;;;6.70;93.20;;;;;;5075725;28;20440;-72
2021/03/10 06:29:19;;;;;;;28.43;21.27;;;6.70;93.30;;;;;;5075651;28;20429;-72
2021/03/10 06:31:45;;;;;;;32.47;24.37;;;6.60;93.40;;;;;;5075549;28;20484;-73
2021/03/10 06:34:13;;;;;;;30.73;24.43;;;6.70;93.40;;;;;;5075592;28;20810;-73
2021/03/10 06:36:40;;;;;;;38.13;24.93;;;6.70;93.30;;;;;;5075260;28;20433;-73
2021/03/10 06:39:08;;;;;;;35.37;24.70;;;6.70;93.20;;;;;;5075402;28;20518;-72
2021/03/10 06:41:37;;;;;;;38.73;25.03;;;6.80;93.40;;;;;;5075101;28;20934;-72
2021/03/10 06:44:15;;;;;;;35.90;25.53;;;6.80;93.40;;;;;;5075384;28;20445;-72
2021/03/10 06:46:53;;;;;;;38.23;26.10;;;6.80;93.40;;;;;;5075388;28;20424;-74
2021/03/10 06:49:20;;;;;;;37.30;25.70;;;6.80;93.50;;;;;;5075602;28;20421;-74
2021/03/10 06:51:54;;;;;;;42.70;26.20;;;6.80;93.60;;;;;;5074801;28;21017;-74
2021/03/10 06:54:21;;;;;;;31.30;24.23;;;6.80;93.90;;;;;;5075227;28;20485;-74
2021/03/10 06:56:59;;;;;;;40.37;26.13;;;6.80;93.50;;;;;;5075105;28;20455;-74
2021/03/10 06:59:26;;;;;;;41.50;26.90;;;6.90;93.60;;;;;;5075116;28;20425;-74
2021/03/10 07:01:53;;;;;;;33.60;25.47;;;6.90;93.50;;;;;;5074986;28;20494;-74
2021/03/10 07:04:20;;;;;;;41.27;27.17;;;7.00;93.50;;;;;;5074663;28;20842;-74
2021/03/10 07:06:48;;;;;;;36.13;27.10;;;7.00;93.30;;;;;;5074532;28;20452;-74
2021/03/10 07:09:14;;;;;;;35.67;26.00;;;7.10;93.30;;;;;;5074851;28;20441;-74
2021/03/10 07:11:42;;;;;;;36.77;24.80;;;7.10;93.20;;;;;;5074753;28;20484;-74
2021/03/10 07:14:10;;;;;;;37.17;27.30;;;7.20;93.20;;;;;;5074219;28;20492;-74
2021/03/10 07:16:38;;;;;;;39.27;27.93;;;7.20;93.10;;;;;;5074799;28;20452;-73
2021/03/10 07:19:06;;;;;;;34.87;25.93;;;7.20;93.10;;;;;;5074577;28;20518;-74
2021/03/10 07:21:37;;;;;;;39.43;26.37;;;7.30;93.10;;;;;;5074287;28;20494;-74
2021/03/10 07:24:06;;;;;;;35.97;26.10;;;7.30;92.90;;;;;;5074595;28;20433;-74
2021/03/10 07:26:40;;;;;;;41.80;28.50;;;7.40;92.90;;;;;;5074559;28;20441;-76
2021/03/10 07:29:08;;;;;;;41.83;28.43;;;7.40;93.10;;;;;;5074096;28;20809;-74
2021/03/10 07:31:34;;;;;;;43.80;30.73;;;7.50;92.70;;;;;;5073973;28;20990;-73
2021/03/10 07:34:02;;;;;;;45.60;30.83;;;7.50;92.60;;;;;;5074373;28;20494;-73
2021/03/10 07:36:34;;;;;;;49.53;33.17;;;7.50;92.60;;;;;;5074368;28;20452;-76
2021/03/10 07:39:00;;;;;;;49.80;32.03;;;7.50;92.60;;;;;;5074283;28;20475;-74
2021/03/10 07:41:37;;;;;;;51.00;31.70;;;7.60;92.70;;;;;;5074231;28;20437;-74
2021/03/10 07:44:18;;;;;;;47.40;30.83;;;7.60;92.70;;;;;;5074196;28;20448;-74
2021/03/10 07:46:46;;;;;;;47.23;31.27;;;7.60;92.70;;;;;;5074174;28;20429;-73
2021/03/10 07:49:18;;;;;;;42.57;29.60;;;7.60;92.60;;;;;;5073735;28;20828;-73
2021/03/10 07:51:44;;;;;;;43.47;31.00;;;7.60;92.60;;;;;;5073979;28;20460;-74
2021/03/10 07:54:19;;;;;;;47.07;31.63;;;7.70;92.50;;;;;;5073954;28;20813;-73
2021/03/10 07:56:46;;;;;;;44.23;30.70;;;7.70;92.40;;;;;;5073597;28;20934;-74
2021/03/10 07:59:13;;;;;;;46.30;29.73;;;7.70;92.40;;;;;;5073838;28;20518;-74
2021/03/10 08:01:40;;;;;;;48.90;30.80;;;7.70;92.40;;;;;;5073901;28;20425;-73
2021/03/10 08:04:14;;;;;;;54.60;33.57;;;7.80;92.50;;;;;;5073908;28;20519;-74
2021/03/10 08:06:46;;;;;;;45.37;31.47;;;7.80;92.40;;;;;;5073454;28;20460;-74
2021/03/10 08:09:13;;;;;;;53.50;33.43;;;7.80;92.30;;;;;;5073753;28;20472;-74
2021/03/10 08:11:44;;;;;;;50.77;32.37;;;7.80;92.40;;;;;;5073678;28;20496;-74
2021/03/10 08:14:10;;;;;;;47.37;34.13;;;7.90;92.50;;;;;;5073783;28;20429;-73
2021/03/10 08:16:50;;;;;;;45.23;31.07;;;8.00;92.20;;;;;;5073707;28;20452;-73
2021/03/10 08:19:20;;;;;;;48.03;32.13;;;8.00;92.10;;;;;;5073666;28;20494;-73
2021/03/10 08:21:50;;;;;;;45.67;31.20;;;8.10;92.00;;;;;;5073351;28;20437;-74
2021/03/10 08:24:16;;;;;;;44.73;31.43;;;8.20;92.20;;;;;;5073672;28;20818;-74
2021/03/10 08:26:47;;;;;;;40.03;29.37;;;8.30;91.70;;;;;;5072692;28;20441;-73
2021/03/10 08:29:13;;;;;;;45.10;30.60;;;8.40;91.60;;;;;;5073162;28;20516;-73
2021/03/10 08:31:48;;;;;;;50.57;31.17;;;8.40;91.20;;;;;;5073307;28;20472;-73
2021/03/10 08:34:15;;;;;;;48.83;33.87;;;8.50;91.20;;;;;;5073255;28;20910;-74
2021/03/10 08:36:42;;;;;;;44.67;31.43;;;8.60;91.00;;;;;;5073492;28;20444;-73
2021/03/10 08:39:11;;;;;;;41.77;28.93;;;8.70;90.90;;;;;;5073434;28;20473;-73
2021/03/10 08:41:46;;;;;;;47.97;33.63;;;8.80;90.60;;;;;;5073390;28;20447;-73
2021/03/10 08:44:13;;;;;;;50.67;29.27;;;8.90;90.30;;;;;;5073301;28;20440;-74
2021/03/10 08:46:41;;;;;;;38.43;28.33;;;9.10;90.20;;;;;;5073255;28;20448;-74
2021/03/10 08:49:29;;;;;;;42.37;32.60;;;9.20;89.70;;;;;;5073234;28;20530;-74
2021/03/10 08:52:04;;;;;;;38.97;29.50;;;9.40;89.10;;;;;;5072949;28;20966;-74
2021/03/10 08:54:32;;;;;;;47.07;30.83;;;9.50;88.40;;;;;;5073309;28;20464;-74
2021/03/10 08:56:58;;;;;;;41.90;29.87;;;9.60;87.60;;;;;;5073174;28;20455;-74
2021/03/10 08:59:34;;;;;;;41.23;29.77;;;9.50;87.00;;;;;;5073178;28;20441;-74
2021/03/10 09:02:00;;;;;;;44.83;29.87;;;9.50;87.10;;;;;;5073094;28;20953;-74
2021/03/10 09:04:28;;;;;;;38.47;28.83;;;9.60;87.40;;;;;;5072899;28;20923;-73
2021/03/10 09:06:57;;;;;;;39.53;28.40;;;9.60;86.50;;;;;;5072889;28;20986;-74
2021/03/10 09:09:24;;;;;;;40.87;29.07;;;9.60;86.50;;;;;;5073427;28;20452;-74
2021/03/10 09:11:53;;;;;;;40.83;29.07;;;9.70;86.10;;;;;;5073022;28;20568;-74
2021/03/10 09:14:21;;;;;;;39.17;29.93;;;9.80;85.90;;;;;;5073084;28;20498;-74
2021/03/10 09:16:55;;;;;;;39.93;30.80;;;9.90;85.60;;;;;;5073015;28;20428;-74
2021/03/10 09:19:36;;;;;;;43.67;30.30;;;10.00;84.20;;;;;;5073033;28;20428;-74
2021/03/10 09:22:21;;;;;;;40.63;28.47;;;10.10;83.90;;;;;;5073034;28;20435;-74
2021/03/10 09:24:53;;;;;;;41.77;29.73;;;10.20;83.40;;;;;;5072950;28;20421;-74
2021/03/10 09:27:22;;;;;;;46.03;30.20;;;10.40;83.00;;;;;;5072886;28;20479;-74
2021/03/10 09:29:49;;;;;;;43.20;28.60;;;10.40;81.80;;;;;;5072681;28;20963;-74
2021/03/10 09:32:16;;;;;;;37.50;26.80;;;10.50;81.20;;;;;;5072870;28;20974;-74
2021/03/10 09:34:45;;;;;;;36.60;27.23;;;10.60;80.90;;;;;;5072939;28;20429;-74
2021/03/10 09:37:13;;;;;;;37.10;27.50;;;10.60;80.20;;;;;;5073684;28;20859;-74
2021/03/10 09:39:41;;;;;;;35.80;27.60;;;10.70;79.80;;;;;;5076255;28;20822;-74
2021/03/10 09:42:07;;;;;;;40.07;29.20;;;10.70;79.40;;;;;;5076288;28;20444;-74
2021/03/10 09:44:45;;;;;;;39.73;27.30;;;10.70;78.70;;;;;;5076480;28;20444;-74
2021/03/10 09:47:13;;;;;;;36.37;26.30;;;10.60;79.10;;;;;;5076505;28;20472;-74
2021/03/10 09:49:48;;;;;;;38.00;28.50;;;10.70;78.90;;;;;;5076411;28;20494;-74
2021/03/10 09:52:14;;;;;;;32.60;24.93;;;10.70;79.30;;;;;;5075986;28;20475;-74
2021/03/10 09:54:54;;;;;;;44.70;28.07;;;10.90;79.80;;;;;;5076315;28;20467;-74
2021/03/10 09:57:22;;;;;;;35.33;25.47;;;10.90;77.70;;;;;;5075980;28;20978;-74
2021/03/10 09:59:49;;;;;;;33.97;25.97;;;10.90;77.40;;;;;;5076188;28;20444;-73
2021/03/10 10:02:15;;;;;;;35.20;26.20;;;11.10;78.00;;;;;;5076215;28;20432;-73
2021/03/10 10:04:42;;;;;;;32.77;26.20;;;11.30;76.60;;;;;;5076124;28;20445;-74
2021/03/10 10:07:11;;;;;;;34.93;24.40;;;11.40;76.40;;;;;;5076005;28;20474;-74
2021/03/10 10:09:37;;;;;;;32.07;23.90;;;11.60;75.80;;;;;;5076095;28;20444;-73
2021/03/10 10:12:05;;;;;;;31.70;24.67;;;11.80;75.80;;;;;;5075599;28;20851;-73
2021/03/10 10:14:31;;;;;;;29.37;24.03;;;11.90;73.50;;;;;;5075682;28;20811;-73
2021/03/10 10:16:59;;;;;;;31.23;24.70;;;12.00;72.90;;;;;;5075941;28;20464;-73
2021/03/10 10:19:25;;;;;;;29.60;22.50;;;12.10;72.70;;;;;;5075883;28;20445;-73
2021/03/10 10:21:51;;;;;;;31.53;22.50;;;12.20;70.80;;;;;;5075443;28;20445;-73
2021/03/10 10:24:18;;;;;;;26.47;20.33;;;12.40;70.80;;;;;;5075813;28;20449;-73
2021/03/10 10:26:44;;;;;;;29.73;22.03;;;12.60;69.20;;;;;;5075719;28;20502;-73
2021/03/10 10:29:10;;;;;;;21.67;19.27;;;12.70;66.80;;;;;;5075619;28;20465;-73
2021/03/10 10:31:37;;;;;;;22.90;18.20;;;12.80;66.40;;;;;;5075606;28;20479;-74
2021/03/10 10:34:04;;;;;;;24.27;18.10;;;12.80;65.20;;;;;;5075652;28;20444;-74
2021/03/10 10:36:30;;;;;;;24.50;19.37;;;12.90;65.80;;;;;;5075442;28;20425;-74
2021/03/10 10:38:56;;;;;;;21.77;18.40;;;13.10;65.70;;;;;;5075793;28;20472;-74
2021/03/10 10:41:22;;;;;;;22.20;18.27;;;13.00;63.10;;;;;;5075293;28;20441;-74
2021/03/10 10:43:49;;;;;;;20.80;17.37;;;13.10;63.60;;;;;;5075436;28;20445;-73
2021/03/10 10:46:15;;;;;;;21.03;17.60;;;13.30;62.50;;;;;;5075351;28;20501;-74
2021/03/10 10:48:41;;;;;;;19.90;16.33;;;13.40;61.00;;;;;;5074067;28;20473;-74
2021/03/10 10:51:08;;;;;;;22.20;15.83;;;13.50;61.20;;;;;;5075204;28;20472;-74
2021/03/10 10:53:34;;;;;;;19.47;16.40;;;13.60;59.90;;;;;;5075209;28;20444;-74
2021/03/10 10:56:01;;;;;;;18.97;15.50;;;13.60;59.30;;;;;;5074960;28;20786;-74
2021/03/10 10:58:27;;;;;;;17.30;14.80;;;13.70;60.10;;;;;;5075012;28;20468;-74
2021/03/10 11:00:53;;;;;;;19.40;14.93;;;13.90;58.70;;;;;;5075096;28;20850;-74
2021/03/10 11:03:19;;;;;;;22.30;14.90;;;13.80;57.70;;;;;;5075130;28;20447;-74
2021/03/10 11:05:45;;;;;;;18.30;13.43;;;13.90;58.20;;;;;;5074790;28;20522;-74
2021/03/10 11:08:12;;;;;;;16.97;13.80;;;13.90;57.70;;;;;;5074848;28;20465;-74
2021/03/10 11:10:39;;;;;;;14.17;12.70;;;13.90;58.30;;;;;;5074760;28;20444;-74
2021/03/10 11:13:05;;;;;;;15.30;13.17;;;13.80;58.20;;;;;;5074509;28;20452;-74
2021/03/10 11:15:31;;;;;;;15.17;11.90;;;13.80;58.20;;;;;;5074867;28;20425;-74
2021/03/10 11:17:57;;;;;;;16.53;10.53;;;13.70;57.90;;;;;;5074655;28;20514;-74
2021/03/10 11:20:24;;;;;;;11.33;8.03;;;13.70;56.40;;;;;;5074730;28;20425;-74
2021/03/10 11:22:50;;;;;;;7.37;6.67;;;13.70;55.00;;;;;;5074618;28;20441;-74
2021/03/10 11:25:17;;;;;;;12.17;6.67;;;13.80;54.10;;;;;;5074519;28;20444;-74
2021/03/10 11:27:44;;;;;;;11.83;5.90;;;13.90;54.40;;;;;;5074445;28;20526;-74
2021/03/10 11:30:12;;;;;;;7.03;5.77;;;14.00;53.70;;;;;;5074236;28;20462;-74
2021/03/10 11:32:38;;;;;;;5.57;4.97;;;14.00;52.40;;;;;;5074385;28;20488;-74
2021/03/10 11:35:06;;;;;;;6.30;4.20;;;14.00;52.50;;;;;;5075281;28;20440;-74
2021/03/10 11:37:33;;;;;;;4.70;4.03;;;13.90;51.70;;;;;;5074599;28;20461;-74
2021/03/10 11:40:00;;;;;;;5.03;4.20;;;13.90;50.40;;;;;;5074341;28;20440;-73
2021/03/10 11:42:27;;;;;;;5.40;4.13;;;13.90;51.30;;;;;;5074153;28;20428;-73
2021/03/10 11:44:53;;;;;;;8.40;5.10;;;14.00;51.80;;;;;;5074143;28;20483;-74
2021/03/10 11:47:19;;;;;;;5.53;4.40;;;14.00;51.00;;;;;;5074082;28;20461;-74
2021/03/10 11:49:45;;;;;;;5.37;4.80;;;14.00;49.70;;;;;;5074128;28;20448;-74
2021/03/10 11:52:12;;;;;;;5.00;4.40;;;14.10;50.50;;;;;;5074023;28;20476;-74
2021/03/10 11:54:38;;;;;;;6.13;4.40;;;14.20;49.40;;;;;;5073963;28;20459;-74
2021/03/10 11:57:05;;;;;;;5.57;4.80;;;14.20;50.00;;;;;;5073853;28;20442;-74
2021/03/10 11:59:32;;;;;;;8.37;4.60;;;14.20;48.90;;;;;;5073862;28;20445;-74
2021/03/10 12:01:59;;;;;;;6.50;5.00;;;14.20;48.90;;;;;;5073849;28;20514;-74
2021/03/10 12:04:26;;;;;;;6.37;4.40;;;14.30;49.10;;;;;;5073833;28;20440;-74
2021/03/10 12:06:52;;;;;;;9.93;4.70;;;14.30;48.70;;;;;;5073544;28;20464;-74
2021/03/10 12:09:18;;;;;;;10.53;6.00;;;14.40;49.10;;;;;;5073793;28;20425;-74
2021/03/10 12:11:46;;;;;;;9.67;5.17;;;14.40;49.30;;;;;;5073372;28;20889;-74
2021/03/10 12:14:12;;;;;;;5.57;4.70;;;14.40;48.10;;;;;;5073748;28;20433;-74
2021/03/10 12:16:39;;;;;;;6.30;5.43;;;14.30;48.90;;;;;;5073751;28;20453;-74
2021/03/10 12:19:06;;;;;;;7.60;5.73;;;14.50;50.00;;;;;;5073667;28;20465;-74
2021/03/10 12:21:32;;;;;;;10.00;6.17;;;14.50;49.50;;;;;;5073602;28;20448;-74
2021/03/10 12:23:59;;;;;;;10.40;6.63;;;14.60;49.20;;;;;;5073675;28;20433;-74
2021/03/10 12:26:25;;;;;;;7.50;6.80;;;14.80;48.90;;;;;;5073576;28;20449;-74
2021/03/10 12:28:51;;;;;;;7.53;6.83;;;15.00;48.90;;;;;;5073590;28;20465;-74
2021/03/10 12:31:18;;;;;;;9.67;6.70;;;15.00;47.70;;;;;;5073460;28;20477;-74
2021/03/10 12:33:45;;;;;;;7.00;6.30;;;15.00;48.40;;;;;;5073594;28;20429;-74
2021/03/10 12:36:11;;;;;;;10.60;7.57;;;15.40;48.90;;;;;;5073508;28;20535;-74
2021/03/10 12:38:37;;;;;;;7.27;6.57;;;15.40;47.00;;;;;;5074179;28;20512;-75
2021/03/10 12:41:03;;;;;;;11.90;8.30;;;15.60;47.30;;;;;;5073467;28;20440;-74
2021/03/10 12:43:30;;;;;;;7.80;6.97;;;15.40;46.70;;;;;;5073502;28;20444;-75